Beach, Texas
Current Conditions -  °F | °C
As of 12:53 PM on Thursday 23 Oct 2014 (Local Time) from KCXO Reporting Station
Clear Clear  
Wind Chill: 75°   Ceiling: Unl
Heat Index: 75°   Visibility: 10mi
Dew Point: 53°   Wind: 5mph
Humidity: 46%   Direction: NA
Pressure: 30.14"   Gusts: NA
Location:  30.3059°N, 95.4359°W
Report Text: KCXO 231753Z VRB04KT 10SM CLR 24/12 A3014 RMK AO2 SLP205 T02390117 10239 20150 58004
Loading
Personal Weather Stations






























Interactive Weather Map
Tropical Storm Tracking
New forecast layout! Learn more

10-Day Weather Forecast

Advertisements
Track Severe Weather on mobile